< < Back
Terminal Aerodrome Forecast


Current Version              Previous Versions:   1  2  3  4  5  6  7  8  9  

Terminal Aerodrome Forecast

407
FTUS42 KFFC 201700
TAFFTY
TAF
KFTY 201729Z 2018/2118 22004KT P6SM FEW040 FEW250
     FM210000 00000KT P6SM SCT100
     FM211400 31004KT P6SM FEW100
     FM211700 31008KT P6SM FEW250=



Latest METAR

056
SAUS70 KWBC 210200 RRN
MTRFTY
METAR KFTY 210153Z 00000KT 10SM CLR 15/12 A3002 RMK AO2 SLP161
T01500122


USA.gov is the U.S. government's official web portal to all federal, state and local government web resources and services.